sensor_id;sensor_type;location;lat;lon;timestamp;temperature;humidity
22738;DHT22;11536;50.860;4.286;2023-03-01T00:01:34;3.30;96.80
22738;DHT22;11536;50.860;4.286;2023-03-01T00:04:00;3.30;96.80
22738;DHT22;11536;50.860;4.286;2023-03-01T00:06:26;3.30;96.80
22738;DHT22;11536;50.860;4.286;2023-03-01T00:08:52;3.30;96.70
22738;DHT22;11536;50.860;4.286;2023-03-01T00:11:22;3.20;96.80
22738;DHT22;11536;50.860;4.286;2023-03-01T00:13:49;3.20;96.80
22738;DHT22;11536;50.860;4.286;2023-03-01T00:16:19;3.20;96.80
22738;DHT22;11536;50.860;4.286;2023-03-01T00:18:45;3.10;96.80
22738;DHT22;11536;50.860;4.286;2023-03-01T00:21:11;3.10;97.00
22738;DHT22;11536;50.860;4.286;2023-03-01T00:23:38;3.00;96.90
22738;DHT22;11536;50.860;4.286;2023-03-01T00:26:12;3.00;97.00
22738;DHT22;11536;50.860;4.286;2023-03-01T00:28:38;3.00;96.90
22738;DHT22;11536;50.860;4.286;2023-03-01T00:31:15;2.90;96.90
22738;DHT22;11536;50.860;4.286;2023-03-01T00:33:41;2.90;97.00
22738;DHT22;11536;50.860;4.286;2023-03-01T00:36:08;2.80;97.00
22738;DHT22;11536;50.860;4.286;2023-03-01T00:38:36;2.80;97.00
22738;DHT22;11536;50.860;4.286;2023-03-01T00:41:07;2.70;97.10
22738;DHT22;11536;50.860;4.286;2023-03-01T00:43:33;2.70;97.20
22738;DHT22;11536;50.860;4.286;2023-03-01T00:46:03;2.60;97.00
22738;DHT22;11536;50.860;4.286;2023-03-01T00:48:29;2.60;97.20
22738;DHT22;11536;50.860;4.286;2023-03-01T00:50:54;2.60;97.10
22738;DHT22;11536;50.860;4.286;2023-03-01T00:53:20;2.50;97.20
22738;DHT22;11536;50.860;4.286;2023-03-01T00:55:45;2.50;97.20
22738;DHT22;11536;50.860;4.286;2023-03-01T00:58:11;2.50;97.20
22738;DHT22;11536;50.860;4.286;2023-03-01T01:00:37;2.50;97.40
22738;DHT22;11536;50.860;4.286;2023-03-01T01:03:02;2.40;97.20
22738;DHT22;11536;50.860;4.286;2023-03-01T01:05:28;2.40;97.20
22738;DHT22;11536;50.860;4.286;2023-03-01T01:07:54;2.40;97.30
22738;DHT22;11536;50.860;4.286;2023-03-01T01:10:19;2.40;97.20
22738;DHT22;11536;50.860;4.286;2023-03-01T01:12:45;2.30;97.20
22738;DHT22;11536;50.860;4.286;2023-03-01T01:15:11;2.30;97.20
22738;DHT22;11536;50.860;4.286;2023-03-01T01:17:39;2.30;97.40
22738;DHT22;11536;50.860;4.286;2023-03-01T01:20:05;2.20;97.60
22738;DHT22;11536;50.860;4.286;2023-03-01T01:22:31;2.20;97.70
22738;DHT22;11536;50.860;4.286;2023-03-01T01:24:57;2.30;97.80
22738;DHT22;11536;50.860;4.286;2023-03-01T01:27:22;2.30;97.90
22738;DHT22;11536;50.860;4.286;2023-03-01T01:29:48;2.30;98.10
22738;DHT22;11536;50.860;4.286;2023-03-01T01:32:13;2.30;97.70
22738;DHT22;11536;50.860;4.286;2023-03-01T01:34:39;2.30;97.50
22738;DHT22;11536;50.860;4.286;2023-03-01T01:37:05;2.40;97.60
22738;DHT22;11536;50.860;4.286;2023-03-01T01:39:34;2.40;97.60
22738;DHT22;11536;50.860;4.286;2023-03-01T01:42:00;2.40;97.60
22738;DHT22;11536;50.860;4.286;2023-03-01T01:44:27;2.40;97.40
22738;DHT22;11536;50.860;4.286;2023-03-01T01:47:05;2.40;97.50
22738;DHT22;11536;50.860;4.286;2023-03-01T01:49:35;2.50;97.40
22738;DHT22;11536;50.860;4.286;2023-03-01T01:52:11;2.40;97.40
22738;DHT22;11536;50.860;4.286;2023-03-01T01:54:53;2.40;97.40
22738;DHT22;11536;50.860;4.286;2023-03-01T01:57:29;2.40;97.50
22738;DHT22;11536;50.860;4.286;2023-03-01T02:00:03;2.30;97.50
22738;DHT22;11536;50.860;4.286;2023-03-01T02:02:31;2.30;97.50
22738;DHT22;11536;50.860;4.286;2023-03-01T02:07:45;2.30;97.50
22738;DHT22;11536;50.860;4.286;2023-03-01T02:10:11;2.30;97.50
22738;DHT22;11536;50.860;4.286;2023-03-01T02:12:38;2.20;98.00
22738;DHT22;11536;50.860;4.286;2023-03-01T02:15:04;2.20;97.70
22738;DHT22;11536;50.860;4.286;2023-03-01T02:17:31;2.20;97.60
22738;DHT22;11536;50.860;4.286;2023-03-01T02:22:37;2.20;97.60
22738;DHT22;11536;50.860;4.286;2023-03-01T02:30:42;2.20;97.60
22738;DHT22;11536;50.860;4.286;2023-03-01T02:33:28;2.20;97.70
22738;DHT22;11536;50.860;4.286;2023-03-01T02:35:59;2.20;97.70
22738;DHT22;11536;50.860;4.286;2023-03-01T02:38:26;2.10;97.60
22738;DHT22;11536;50.860;4.286;2023-03-01T02:40:52;2.10;97.60
22738;DHT22;11536;50.860;4.286;2023-03-01T02:43:21;2.10;97.60
22738;DHT22;11536;50.860;4.286;2023-03-01T02:45:50;2.00;97.70
22738;DHT22;11536;50.860;4.286;2023-03-01T02:48:17;2.10;97.70
22738;DHT22;11536;50.860;4.286;2023-03-01T02:50:54;2.00;97.70
22738;DHT22;11536;50.860;4.286;2023-03-01T02:53:29;2.00;97.70
22738;DHT22;11536;50.860;4.286;2023-03-01T02:56:01;2.00;98.00
22738;DHT22;11536;50.860;4.286;2023-03-01T02:58:26;2.00;97.80
22738;DHT22;11536;50.860;4.286;2023-03-01T03:00:52;1.90;97.80
22738;DHT22;11536;50.860;4.286;2023-03-01T03:03:20;1.90;97.80
22738;DHT22;11536;50.860;4.286;2023-03-01T03:05:47;1.90;97.90
22738;DHT22;11536;50.860;4.286;2023-03-01T03:08:14;1.90;97.80
22738;DHT22;11536;50.860;4.286;2023-03-01T03:10:42;1.80;97.80
22738;DHT22;11536;50.860;4.286;2023-03-01T03:13:13;1.80;97.80
22738;DHT22;11536;50.860;4.286;2023-03-01T03:15:40;1.70;97.80
22738;DHT22;11536;50.860;4.286;2023-03-01T03:18:09;1.70;98.00
22738;DHT22;11536;50.860;4.286;2023-03-01T03:20:36;1.70;98.00
22738;DHT22;11536;50.860;4.286;2023-03-01T03:23:02;1.70;98.00
22738;DHT22;11536;50.860;4.286;2023-03-01T03:25:28;1.70;98.00
22738;DHT22;11536;50.860;4.286;2023-03-01T03:27:55;1.70;98.10
22738;DHT22;11536;50.860;4.286;2023-03-01T03:30:31;1.70;98.10
22738;DHT22;11536;50.860;4.286;2023-03-01T03:32:57;1.60;98.00
22738;DHT22;11536;50.860;4.286;2023-03-01T03:35:28;1.60;98.40
22738;DHT22;11536;50.860;4.286;2023-03-01T03:37:59;1.60;98.30
22738;DHT22;11536;50.860;4.286;2023-03-01T03:40:37;1.60;98.20
22738;DHT22;11536;50.860;4.286;2023-03-01T03:43:06;1.60;98.40
22738;DHT22;11536;50.860;4.286;2023-03-01T03:45:32;1.60;98.70
22738;DHT22;11536;50.860;4.286;2023-03-01T03:47:59;1.60;98.60
22738;DHT22;11536;50.860;4.286;2023-03-01T03:50:25;1.60;98.60
22738;DHT22;11536;50.860;4.286;2023-03-01T03:52:51;1.60;98.90
22738;DHT22;11536;50.860;4.286;2023-03-01T03:55:17;1.60;98.70
22738;DHT22;11536;50.860;4.286;2023-03-01T03:57:45;1.50;98.90
22738;DHT22;11536;50.860;4.286;2023-03-01T04:00:18;1.50;98.70
22738;DHT22;11536;50.860;4.286;2023-03-01T04:02:45;1.50;99.70
22738;DHT22;11536;50.860;4.286;2023-03-01T04:05:13;1.50;99.70
22738;DHT22;11536;50.860;4.286;2023-03-01T04:07:40;1.50;99.10
22738;DHT22;11536;50.860;4.286;2023-03-01T04:10:09;1.50;99.30
22738;DHT22;11536;50.860;4.286;2023-03-01T04:12:35;1.50;99.10
22738;DHT22;11536;50.860;4.286;2023-03-01T04:15:03;1.50;99.10
22738;DHT22;11536;50.860;4.286;2023-03-01T04:17:41;1.50;99.10
22738;DHT22;11536;50.860;4.286;2023-03-01T04:20:12;1.50;99.50
22738;DHT22;11536;50.860;4.286;2023-03-01T04:22:39;1.40;99.20
22738;DHT22;11536;50.860;4.286;2023-03-01T04:25:05;1.40;99.30
22738;DHT22;11536;50.860;4.286;2023-03-01T04:27:35;1.40;99.90
22738;DHT22;11536;50.860;4.286;2023-03-01T04:30:02;1.40;99.90
22738;DHT22;11536;50.860;4.286;2023-03-01T04:32:28;1.40;99.90
22738;DHT22;11536;50.860;4.286;2023-03-01T04:34:54;1.30;99.90
22738;DHT22;11536;50.860;4.286;2023-03-01T04:37:19;1.30;99.90
22738;DHT22;11536;50.860;4.286;2023-03-01T04:39:45;1.30;99.80
22738;DHT22;11536;50.860;4.286;2023-03-01T04:42:11;1.30;99.90
22738;DHT22;11536;50.860;4.286;2023-03-01T04:44:37;1.40;99.90
22738;DHT22;11536;50.860;4.286;2023-03-01T04:47:03;1.40;99.70
22738;DHT22;11536;50.860;4.286;2023-03-01T04:49:28;1.40;99.90
22738;DHT22;11536;50.860;4.286;2023-03-01T04:51:55;1.30;99.90
22738;DHT22;11536;50.860;4.286;2023-03-01T04:54:20;1.30;99.90
22738;DHT22;11536;50.860;4.286;2023-03-01T04:56:46;1.30;99.90
22738;DHT22;11536;50.860;4.286;2023-03-01T04:59:11;1.30;99.90
22738;DHT22;11536;50.860;4.286;2023-03-01T05:01:38;1.30;99.90
22738;DHT22;11536;50.860;4.286;2023-03-01T05:04:03;1.20;99.90
22738;DHT22;11536;50.860;4.286;2023-03-01T05:06:31;1.20;99.90
22738;DHT22;11536;50.860;4.286;2023-03-01T05:08:56;1.20;99.90
22738;DHT22;11536;50.860;4.286;2023-03-01T05:11:23;1.20;99.90
22738;DHT22;11536;50.860;4.286;2023-03-01T05:13:49;1.20;99.90
22738;DHT22;11536;50.860;4.286;2023-03-01T05:16:20;1.30;99.90
22738;DHT22;11536;50.860;4.286;2023-03-01T05:18:45;1.30;99.90
22738;DHT22;11536;50.860;4.286;2023-03-01T05:21:13;1.30;99.90
22738;DHT22;11536;50.860;4.286;2023-03-01T05:23:41;1.30;99.90
22738;DHT22;11536;50.860;4.286;2023-03-01T05:26:08;1.30;99.90
22738;DHT22;11536;50.860;4.286;2023-03-01T05:28:33;1.30;99.90
22738;DHT22;11536;50.860;4.286;2023-03-01T05:30:59;1.30;99.90
22738;DHT22;11536;50.860;4.286;2023-03-01T05:33:25;1.30;99.90
22738;DHT22;11536;50.860;4.286;2023-03-01T05:35:51;1.30;99.90
22738;DHT22;11536;50.860;4.286;2023-03-01T05:38:18;1.30;99.90
22738;DHT22;11536;50.860;4.286;2023-03-01T05:40:46;1.20;99.90
22738;DHT22;11536;50.860;4.286;2023-03-01T05:43:14;1.20;99.90
22738;DHT22;11536;50.860;4.286;2023-03-01T05:45:41;1.20;99.90
22738;DHT22;11536;50.860;4.286;2023-03-01T05:48:08;1.20;99.90
22738;DHT22;11536;50.860;4.286;2023-03-01T05:50:43;1.20;99.90
22738;DHT22;11536;50.860;4.286;2023-03-01T05:53:14;1.20;99.90
22738;DHT22;11536;50.860;4.286;2023-03-01T05:55:40;1.20;99.90
22738;DHT22;11536;50.860;4.286;2023-03-01T05:58:07;1.20;99.90
22738;DHT22;11536;50.860;4.286;2023-03-01T06:00:34;1.20;99.90
22738;DHT22;11536;50.860;4.286;2023-03-01T06:03:00;1.20;99.90
22738;DHT22;11536;50.860;4.286;2023-03-01T06:05:27;1.10;99.90
22738;DHT22;11536;50.860;4.286;2023-03-01T06:07:53;1.10;99.90
22738;DHT22;11536;50.860;4.286;2023-03-01T06:10:20;1.00;99.90
22738;DHT22;11536;50.860;4.286;2023-03-01T06:12:47;1.00;99.90
22738;DHT22;11536;50.860;4.286;2023-03-01T06:15:14;1.00;99.90
22738;DHT22;11536;50.860;4.286;2023-03-01T06:17:41;1.00;99.90
22738;DHT22;11536;50.860;4.286;2023-03-01T06:20:10;1.10;99.90
22738;DHT22;11536;50.860;4.286;2023-03-01T06:22:36;1.10;99.90
22738;DHT22;11536;50.860;4.286;2023-03-01T06:25:02;1.00;99.90
22738;DHT22;11536;50.860;4.286;2023-03-01T06:27:27;1.00;99.90
22738;DHT22;11536;50.860;4.286;2023-03-01T06:29:53;1.10;99.90
22738;DHT22;11536;50.860;4.286;2023-03-01T06:32:19;1.10;99.90
22738;DHT22;11536;50.860;4.286;2023-03-01T06:34:48;1.10;99.90
22738;DHT22;11536;50.860;4.286;2023-03-01T06:37:14;1.00;99.90
22738;DHT22;11536;50.860;4.286;2023-03-01T06:39:40;1.00;99.90
22738;DHT22;11536;50.860;4.286;2023-03-01T06:42:07;1.10;99.90
22738;DHT22;11536;50.860;4.286;2023-03-01T06:44:33;1.00;99.90
22738;DHT22;11536;50.860;4.286;2023-03-01T06:46:59;1.00;99.90
22738;DHT22;11536;50.860;4.286;2023-03-01T06:49:24;1.10;99.90
22738;DHT22;11536;50.860;4.286;2023-03-01T06:51:50;1.10;99.90
22738;DHT22;11536;50.860;4.286;2023-03-01T06:54:15;1.10;99.90
22738;DHT22;11536;50.860;4.286;2023-03-01T06:56:43;1.00;99.90
22738;DHT22;11536;50.860;4.286;2023-03-01T06:59:11;1.10;99.90
22738;DHT22;11536;50.860;4.286;2023-03-01T07:01:37;1.10;99.90
22738;DHT22;11536;50.860;4.286;2023-03-01T07:04:04;1.00;99.90
22738;DHT22;11536;50.860;4.286;2023-03-01T07:06:29;1.00;99.90
22738;DHT22;11536;50.860;4.286;2023-03-01T07:08:55;1.00;99.90
22738;DHT22;11536;50.860;4.286;2023-03-01T07:11:21;1.00;99.90
22738;DHT22;11536;50.860;4.286;2023-03-01T07:13:47;1.10;99.90
22738;DHT22;11536;50.860;4.286;2023-03-01T07:16:13;1.10;99.90
22738;DHT22;11536;50.860;4.286;2023-03-01T07:18:40;1.20;99.90
22738;DHT22;11536;50.860;4.286;2023-03-01T07:21:07;1.30;99.90
22738;DHT22;11536;50.860;4.286;2023-03-01T07:23:33;1.40;99.90
22738;DHT22;11536;50.860;4.286;2023-03-01T07:25:59;1.40;99.90
22738;DHT22;11536;50.860;4.286;2023-03-01T07:28:26;1.50;99.90
22738;DHT22;11536;50.860;4.286;2023-03-01T07:30:52;1.50;99.90
22738;DHT22;11536;50.860;4.286;2023-03-01T07:33:17;1.60;99.90
22738;DHT22;11536;50.860;4.286;2023-03-01T07:35:43;1.60;99.90
22738;DHT22;11536;50.860;4.286;2023-03-01T07:38:09;1.60;99.90
22738;DHT22;11536;50.860;4.286;2023-03-01T07:40:34;1.50;99.90
22738;DHT22;11536;50.860;4.286;2023-03-01T07:43:00;1.50;99.90
22738;DHT22;11536;50.860;4.286;2023-03-01T07:45:27;1.50;99.90
22738;DHT22;11536;50.860;4.286;2023-03-01T07:47:54;1.50;99.90
22738;DHT22;11536;50.860;4.286;2023-03-01T07:50:20;1.50;99.90
22738;DHT22;11536;50.860;4.286;2023-03-01T07:52:46;1.50;99.90
22738;DHT22;11536;50.860;4.286;2023-03-01T07:55:13;1.50;99.90
22738;DHT22;11536;50.860;4.286;2023-03-01T07:57:39;1.60;99.90
22738;DHT22;11536;50.860;4.286;2023-03-01T08:00:06;1.60;99.90
22738;DHT22;11536;50.860;4.286;2023-03-01T08:02:32;1.60;99.90
22738;DHT22;11536;50.860;4.286;2023-03-01T08:04:58;1.60;99.90
22738;DHT22;11536;50.860;4.286;2023-03-01T08:07:23;1.60;99.90
22738;DHT22;11536;50.860;4.286;2023-03-01T08:09:49;1.70;99.90
22738;DHT22;11536;50.860;4.286;2023-03-01T08:12:15;1.70;99.90
22738;DHT22;11536;50.860;4.286;2023-03-01T08:14:42;1.80;99.90
22738;DHT22;11536;50.860;4.286;2023-03-01T08:17:08;1.90;99.90
22738;DHT22;11536;50.860;4.286;2023-03-01T08:19:33;1.90;99.90
22738;DHT22;11536;50.860;4.286;2023-03-01T08:22:01;2.00;99.90
22738;DHT22;11536;50.860;4.286;2023-03-01T08:24:27;1.90;99.90
22738;DHT22;11536;50.860;4.286;2023-03-01T08:26:53;2.00;99.90
22738;DHT22;11536;50.860;4.286;2023-03-01T08:29:19;2.00;99.90
22738;DHT22;11536;50.860;4.286;2023-03-01T08:31:45;2.00;99.90
22738;DHT22;11536;50.860;4.286;2023-03-01T08:34:13;2.00;99.90
22738;DHT22;11536;50.860;4.286;2023-03-01T08:36:41;2.10;99.90
22738;DHT22;11536;50.860;4.286;2023-03-01T08:39:09;2.10;99.90
22738;DHT22;11536;50.860;4.286;2023-03-01T08:41:34;2.20;99.90
22738;DHT22;11536;50.860;4.286;2023-03-01T08:44:00;2.20;99.90
22738;DHT22;11536;50.860;4.286;2023-03-01T08:46:31;2.30;99.90
22738;DHT22;11536;50.860;4.286;2023-03-01T08:48:57;2.30;99.90
22738;DHT22;11536;50.860;4.286;2023-03-01T08:51:24;2.30;99.90
22738;DHT22;11536;50.860;4.286;2023-03-01T08:53:50;2.30;99.90
22738;DHT22;11536;50.860;4.286;2023-03-01T08:56:17;2.40;99.90
22738;DHT22;11536;50.860;4.286;2023-03-01T08:58:45;2.40;99.90
22738;DHT22;11536;50.860;4.286;2023-03-01T09:01:12;2.40;99.90
22738;DHT22;11536;50.860;4.286;2023-03-01T09:03:38;2.50;99.90
22738;DHT22;11536;50.860;4.286;2023-03-01T09:06:05;2.50;99.90
22738;DHT22;11536;50.860;4.286;2023-03-01T09:08:35;2.60;99.90
22738;DHT22;11536;50.860;4.286;2023-03-01T09:11:03;2.60;99.90
22738;DHT22;11536;50.860;4.286;2023-03-01T09:13:29;2.70;99.90
22738;DHT22;11536;50.860;4.286;2023-03-01T09:16:00;2.70;99.90
22738;DHT22;11536;50.860;4.286;2023-03-01T09:18:26;2.80;99.90
22738;DHT22;11536;50.860;4.286;2023-03-01T09:20:52;2.90;99.90
22738;DHT22;11536;50.860;4.286;2023-03-01T09:23:21;2.90;99.90
22738;DHT22;11536;50.860;4.286;2023-03-01T09:25:47;3.00;99.90
22738;DHT22;11536;50.860;4.286;2023-03-01T09:28:13;3.00;99.90
22738;DHT22;11536;50.860;4.286;2023-03-01T09:30:38;3.00;99.90
22738;DHT22;11536;50.860;4.286;2023-03-01T09:33:04;3.00;99.90
22738;DHT22;11536;50.860;4.286;2023-03-01T09:35:30;3.10;99.90
22738;DHT22;11536;50.860;4.286;2023-03-01T09:37:55;3.20;99.90
22738;DHT22;11536;50.860;4.286;2023-03-01T09:40:24;3.20;99.90
22738;DHT22;11536;50.860;4.286;2023-03-01T09:46:07;3.30;99.90
22738;DHT22;11536;50.860;4.286;2023-03-01T09:48:45;3.30;99.90
22738;DHT22;11536;50.860;4.286;2023-03-01T09:51:17;3.30;99.90
22738;DHT22;11536;50.860;4.286;2023-03-01T09:53:44;3.40;99.90
22738;DHT22;11536;50.860;4.286;2023-03-01T10:01:33;3.60;99.90
22738;DHT22;11536;50.860;4.286;2023-03-01T10:04:26;3.50;99.90
22738;DHT22;11536;50.860;4.286;2023-03-01T10:07:11;3.70;99.90
22738;DHT22;11536;50.860;4.286;2023-03-01T10:09:42;3.70;99.90
22738;DHT22;11536;50.860;4.286;2023-03-01T10:12:15;3.80;99.90
22738;DHT22;11536;50.860;4.286;2023-03-01T10:14:53;3.80;99.90
22738;DHT22;11536;50.860;4.286;2023-03-01T10:22:38;3.90;99.90
22738;DHT22;11536;50.860;4.286;2023-03-01T10:25:04;4.00;99.90
22738;DHT22;11536;50.860;4.286;2023-03-01T10:27:40;4.10;99.90
22738;DHT22;11536;50.860;4.286;2023-03-01T10:30:13;4.20;99.90
22738;DHT22;11536;50.860;4.286;2023-03-01T10:32:42;4.20;99.90
22738;DHT22;11536;50.860;4.286;2023-03-01T10:35:16;4.20;99.90
22738;DHT22;11536;50.860;4.286;2023-03-01T10:37:57;4.30;99.90
22738;DHT22;11536;50.860;4.286;2023-03-01T10:40:23;4.30;99.90
22738;DHT22;11536;50.860;4.286;2023-03-01T10:42:49;4.30;99.90
22738;DHT22;11536;50.860;4.286;2023-03-01T10:48:20;4.50;99.90
22738;DHT22;11536;50.860;4.286;2023-03-01T10:50:51;4.60;99.90
22738;DHT22;11536;50.860;4.286;2023-03-01T10:53:41;4.60;99.90
22738;DHT22;11536;50.860;4.286;2023-03-01T10:56:12;4.70;99.90
22738;DHT22;11536;50.860;4.286;2023-03-01T10:58:40;4.70;99.90
22738;DHT22;11536;50.860;4.286;2023-03-01T11:03:40;4.80;99.90
22738;DHT22;11536;50.860;4.286;2023-03-01T11:08:46;4.80;99.90
22738;DHT22;11536;50.860;4.286;2023-03-01T11:14:06;4.90;99.90
22738;DHT22;11536;50.860;4.286;2023-03-01T11:16:35;4.90;99.90
22738;DHT22;11536;50.860;4.286;2023-03-01T11:19:21;4.90;99.90
22738;DHT22;11536;50.860;4.286;2023-03-01T11:22:11;4.90;99.90
22738;DHT22;11536;50.860;4.286;2023-03-01T11:24:41;4.90;99.90
22738;DHT22;11536;50.860;4.286;2023-03-01T11:35:35;5.20;99.90
22738;DHT22;11536;50.860;4.286;2023-03-01T11:38:35;5.20;99.90
22738;DHT22;11536;50.860;4.286;2023-03-01T11:41:06;5.30;99.90
22738;DHT22;11536;50.860;4.286;2023-03-01T11:57:14;5.60;99.80
22738;DHT22;11536;50.860;4.286;2023-03-01T12:03:13;5.80;99.90
22738;DHT22;11536;50.860;4.286;2023-03-01T12:05:57;5.80;99.90
22738;DHT22;11536;50.860;4.286;2023-03-01T12:13:56;5.90;98.80
22738;DHT22;11536;50.860;4.286;2023-03-01T12:16:40;5.90;98.90
22738;DHT22;11536;50.860;4.286;2023-03-01T12:35:21;6.60;99.70
22738;DHT22;11536;50.860;4.286;2023-03-01T12:41:04;6.90;99.30
22738;DHT22;11536;50.860;4.286;2023-03-01T12:51:31;7.50;97.70
22738;DHT22;11536;50.860;4.286;2023-03-01T12:53:59;7.40;97.50
22738;DHT22;11536;50.860;4.286;2023-03-01T12:56:30;7.60;97.20
22738;DHT22;11536;50.860;4.286;2023-03-01T12:59:11;7.50;97.10
22738;DHT22;11536;50.860;4.286;2023-03-01T13:02:12;7.70;98.10
22738;DHT22;11536;50.860;4.286;2023-03-01T13:05:06;7.80;97.00
22738;DHT22;11536;50.860;4.286;2023-03-01T13:07:50;7.90;97.20
22738;DHT22;11536;50.860;4.286;2023-03-01T13:18:03;8.00;95.60
22738;DHT22;11536;50.860;4.286;2023-03-01T13:28:38;8.30;95.10
22738;DHT22;11536;50.860;4.286;2023-03-01T13:33:56;8.30;95.60
22738;DHT22;11536;50.860;4.286;2023-03-01T13:44:12;8.30;95.80
22738;DHT22;11536;50.860;4.286;2023-03-01T13:46:38;8.40;96.40
22738;DHT22;11536;50.860;4.286;2023-03-01T13:49:05;8.40;95.40
22738;DHT22;11536;50.860;4.286;2023-03-01T13:51:30;8.50;95.60
22738;DHT22;11536;50.860;4.286;2023-03-01T13:53:57;8.60;94.80
22738;DHT22;11536;50.860;4.286;2023-03-01T13:56:26;8.50;95.00
22738;DHT22;11536;50.860;4.286;2023-03-01T13:58:54;8.50;95.00
22738;DHT22;11536;50.860;4.286;2023-03-01T14:01:26;8.50;95.20
22738;DHT22;11536;50.860;4.286;2023-03-01T14:03:52;8.50;95.60
22738;DHT22;11536;50.860;4.286;2023-03-01T14:06:27;8.60;94.40
22738;DHT22;11536;50.860;4.286;2023-03-01T14:09:16;8.50;94.60
22738;DHT22;11536;50.860;4.286;2023-03-01T14:14:52;8.40;95.10
22738;DHT22;11536;50.860;4.286;2023-03-01T14:20:20;8.50;95.20
22738;DHT22;11536;50.860;4.286;2023-03-01T14:22:53;8.60;95.20
22738;DHT22;11536;50.860;4.286;2023-03-01T14:27:56;8.60;94.60
22738;DHT22;11536;50.860;4.286;2023-03-01T14:30:24;8.50;94.90
22738;DHT22;11536;50.860;4.286;2023-03-01T14:32:59;8.50;94.80
22738;DHT22;11536;50.860;4.286;2023-03-01T14:35:27;8.50;95.00
22738;DHT22;11536;50.860;4.286;2023-03-01T14:37:53;8.40;94.40
22738;DHT22;11536;50.860;4.286;2023-03-01T14:40:32;8.40;95.00
22738;DHT22;11536;50.860;4.286;2023-03-01T14:43:00;8.40;95.30
22738;DHT22;11536;50.860;4.286;2023-03-01T14:45:29;8.30;93.50
22738;DHT22;11536;50.860;4.286;2023-03-01T14:48:00;8.20;93.40
22738;DHT22;11536;50.860;4.286;2023-03-01T14:50:29;8.10;94.20
22738;DHT22;11536;50.860;4.286;2023-03-01T14:52:58;8.10;93.80
22738;DHT22;11536;50.860;4.286;2023-03-01T14:55:37;8.10;94.40
22738;DHT22;11536;50.860;4.286;2023-03-01T14:58:12;8.00;94.10
22738;DHT22;11536;50.860;4.286;2023-03-01T15:00:39;8.00;94.60
22738;DHT22;11536;50.860;4.286;2023-03-01T15:03:40;8.10;95.00
22738;DHT22;11536;50.860;4.286;2023-03-01T15:06:04;8.10;95.00
22738;DHT22;11536;50.860;4.286;2023-03-01T15:08:31;8.20;94.50
22738;DHT22;11536;50.860;4.286;2023-03-01T15:11:16;8.10;94.60
22738;DHT22;11536;50.860;4.286;2023-03-01T15:13:42;8.20;94.70
22738;DHT22;11536;50.860;4.286;2023-03-01T15:19:06;8.20;94.50
22738;DHT22;11536;50.860;4.286;2023-03-01T15:21:37;8.20;94.80
22738;DHT22;11536;50.860;4.286;2023-03-01T15:24:17;8.20;95.10
22738;DHT22;11536;50.860;4.286;2023-03-01T15:29:25;8.30;95.40
22738;DHT22;11536;50.860;4.286;2023-03-01T15:32:00;8.30;95.60
22738;DHT22;11536;50.860;4.286;2023-03-01T15:34:34;8.30;94.80
22738;DHT22;11536;50.860;4.286;2023-03-01T15:37:01;8.30;94.80
22738;DHT22;11536;50.860;4.286;2023-03-01T15:39:42;8.20;94.50
22738;DHT22;11536;50.860;4.286;2023-03-01T15:45:19;8.10;94.50
22738;DHT22;11536;50.860;4.286;2023-03-01T15:47:54;8.00;94.60
22738;DHT22;11536;50.860;4.286;2023-03-01T15:50:29;8.00;94.40
22738;DHT22;11536;50.860;4.286;2023-03-01T15:52:59;7.90;94.40
22738;DHT22;11536;50.860;4.286;2023-03-01T15:55:27;7.90;94.90
22738;DHT22;11536;50.860;4.286;2023-03-01T15:58:10;7.90;94.70
22738;DHT22;11536;50.860;4.286;2023-03-01T16:00:37;7.90;94.50
22738;DHT22;11536;50.860;4.286;2023-03-01T16:03:05;7.90;94.70
22738;DHT22;11536;50.860;4.286;2023-03-01T16:05:33;7.90;94.40
22738;DHT22;11536;50.860;4.286;2023-03-01T16:08:00;7.80;94.80
22738;DHT22;11536;50.860;4.286;2023-03-01T16:10:26;7.80;94.90
22738;DHT22;11536;50.860;4.286;2023-03-01T16:12:53;7.90;94.60
22738;DHT22;11536;50.860;4.286;2023-03-01T16:15:27;7.90;94.60
22738;DHT22;11536;50.860;4.286;2023-03-01T16:17:54;7.80;94.80
22738;DHT22;11536;50.860;4.286;2023-03-01T16:20:20;7.80;94.50
22738;DHT22;11536;50.860;4.286;2023-03-01T16:22:46;7.70;94.60
22738;DHT22;11536;50.860;4.286;2023-03-01T16:25:17;7.70;94.20
22738;DHT22;11536;50.860;4.286;2023-03-01T16:27:44;7.70;95.20
22738;DHT22;11536;50.860;4.286;2023-03-01T16:30:11;7.70;94.80
22738;DHT22;11536;50.860;4.286;2023-03-01T16:32:38;7.70;94.30
22738;DHT22;11536;50.860;4.286;2023-03-01T16:35:05;7.70;94.70
22738;DHT22;11536;50.860;4.286;2023-03-01T16:37:33;7.70;94.50
22738;DHT22;11536;50.860;4.286;2023-03-01T16:39:59;7.70;94.70
22738;DHT22;11536;50.860;4.286;2023-03-01T16:42:25;7.60;94.30
22738;DHT22;11536;50.860;4.286;2023-03-01T16:44:56;7.60;94.40
22738;DHT22;11536;50.860;4.286;2023-03-01T16:47:22;7.60;94.40
22738;DHT22;11536;50.860;4.286;2023-03-01T16:49:52;7.50;94.20
22738;DHT22;11536;50.860;4.286;2023-03-01T16:52:19;7.50;94.70
22738;DHT22;11536;50.860;4.286;2023-03-01T16:54:45;7.50;94.80
22738;DHT22;11536;50.860;4.286;2023-03-01T16:57:10;7.50;94.60
22738;DHT22;11536;50.860;4.286;2023-03-01T16:59:36;7.40;94.60
22738;DHT22;11536;50.860;4.286;2023-03-01T17:02:03;7.40;94.80
22738;DHT22;11536;50.860;4.286;2023-03-01T17:04:29;7.40;94.60
22738;DHT22;11536;50.860;4.286;2023-03-01T17:06:54;7.30;94.70
22738;DHT22;11536;50.860;4.286;2023-03-01T17:09:20;7.30;94.70
22738;DHT22;11536;50.860;4.286;2023-03-01T17:11:50;7.30;95.00
22738;DHT22;11536;50.860;4.286;2023-03-01T17:14:16;7.20;94.80
22738;DHT22;11536;50.860;4.286;2023-03-01T17:16:43;7.20;95.10
22738;DHT22;11536;50.860;4.286;2023-03-01T17:19:09;7.30;95.40
22738;DHT22;11536;50.860;4.286;2023-03-01T17:21:35;7.30;95.30
22738;DHT22;11536;50.860;4.286;2023-03-01T17:24:03;7.30;95.30
22738;DHT22;11536;50.860;4.286;2023-03-01T17:26:29;7.30;95.20
22738;DHT22;11536;50.860;4.286;2023-03-01T17:28:56;7.20;95.20
22738;DHT22;11536;50.860;4.286;2023-03-01T17:31:22;7.20;95.00
22738;DHT22;11536;50.860;4.286;2023-03-01T17:33:48;7.20;95.10
22738;DHT22;11536;50.860;4.286;2023-03-01T17:36:15;7.10;95.30
22738;DHT22;11536;50.860;4.286;2023-03-01T17:38:41;7.20;95.20
22738;DHT22;11536;50.860;4.286;2023-03-01T17:41:07;7.10;95.40
22738;DHT22;11536;50.860;4.286;2023-03-01T17:43:36;7.10;95.50
22738;DHT22;11536;50.860;4.286;2023-03-01T17:46:02;7.10;95.30
22738;DHT22;11536;50.860;4.286;2023-03-01T17:48:28;7.00;95.10
22738;DHT22;11536;50.860;4.286;2023-03-01T17:50:54;7.00;95.40
22738;DHT22;11536;50.860;4.286;2023-03-01T17:53:20;7.00;95.30
22738;DHT22;11536;50.860;4.286;2023-03-01T17:55:46;6.90;95.40
22738;DHT22;11536;50.860;4.286;2023-03-01T17:58:18;7.00;95.70
22738;DHT22;11536;50.860;4.286;2023-03-01T18:00:47;6.90;95.50
22738;DHT22;11536;50.860;4.286;2023-03-01T18:03:14;6.90;95.40
22738;DHT22;11536;50.860;4.286;2023-03-01T18:05:39;6.90;95.40
22738;DHT22;11536;50.860;4.286;2023-03-01T18:08:05;6.80;95.80
22738;DHT22;11536;50.860;4.286;2023-03-01T18:10:32;6.80;95.60
22738;DHT22;11536;50.860;4.286;2023-03-01T18:13:01;6.80;95.50